createdAt,value
2018-01-02T00:00:29.567Z,6.28
2018-01-02T00:01:29.620Z,6.29
2018-01-02T00:02:29.485Z,6.3
2018-01-02T00:03:29.286Z,6.3
2018-01-02T00:04:30.087Z,6.33
2018-01-02T00:05:30.082Z,6.3
2018-01-02T00:06:30.000Z,6.32
2018-01-02T00:07:29.963Z,6.31
2018-01-02T00:08:29.931Z,6.29
2018-01-02T00:09:29.943Z,6.27
2018-01-02T00:10:29.964Z,6.27
2018-01-02T00:11:30.087Z,6.29
2018-01-02T00:12:30.048Z,6.28
2018-01-02T00:13:30.178Z,6.26
2018-01-02T00:14:30.084Z,6.27
2018-01-02T00:15:30.011Z,6.28
2018-01-02T00:16:29.964Z,6.29
2018-01-02T00:17:30.119Z,6.27
2018-01-02T00:18:30.011Z,6.23
2018-01-02T00:19:29.768Z,6.22
2018-01-02T00:20:29.682Z,6.23
2018-01-02T00:21:29.895Z,6.23
2018-01-02T00:22:29.919Z,6.22
2018-01-02T00:23:29.934Z,6.21
2018-01-02T00:24:29.978Z,6.19
2018-01-02T00:25:29.085Z,6.18
2018-01-02T00:26:29.042Z,6.16
2018-01-02T00:27:29.112Z,6.16
2018-01-02T00:28:29.471Z,6.17
2018-01-02T00:29:29.605Z,6.11
2018-01-02T00:30:29.412Z,6.09
2018-01-02T00:31:29.359Z,6.08
2018-01-02T00:32:29.298Z,6.06
2018-01-02T00:33:29.425Z,6.04
2018-01-02T00:34:29.392Z,6.03
2018-01-02T00:35:29.450Z,6.03
2018-01-02T00:36:29.357Z,6.01
2018-01-02T00:37:29.356Z,6.02
2018-01-02T00:38:29.336Z,5.97
2018-01-02T00:39:29.515Z,5.99
2018-01-02T00:40:29.395Z,5.98
2018-01-02T00:41:29.388Z,5.98
2018-01-02T00:42:29.261Z,5.97
2018-01-02T00:43:29.176Z,5.89
2018-01-02T00:44:29.104Z,5.93
2018-01-02T00:45:29.181Z,5.87
2018-01-02T00:46:29.109Z,5.88
2018-01-02T00:47:29.044Z,5.9
2018-01-02T00:48:29.062Z,5.9
2018-01-02T00:49:29.516Z,5.94
2018-01-02T00:50:29.508Z,5.91
2018-01-02T00:51:29.579Z,5.93
2018-01-02T00:52:29.725Z,5.92
2018-01-02T00:53:29.810Z,5.93
2018-01-02T00:54:29.775Z,5.93
2018-01-02T00:55:28.767Z,5.93
2018-01-02T00:56:29.638Z,5.94
2018-01-02T00:57:29.809Z,5.95
2018-01-02T00:58:28.903Z,5.94
2018-01-02T00:59:28.893Z,5.95
2018-01-02T01:00:29.002Z,5.96
2018-01-02T01:01:28.881Z,5.98
2018-01-02T01:02:28.998Z,5.98
2018-01-02T01:03:29.021Z,5.99
2018-01-02T01:05:29.205Z,5.98
2018-01-02T01:06:29.284Z,5.98
2018-01-02T01:07:29.372Z,5.97
2018-01-02T01:08:29.599Z,5.97
2018-01-02T01:09:29.655Z,5.96
2018-01-02T01:10:29.710Z,5.94
2018-01-02T01:11:29.614Z,5.94
2018-01-02T01:12:29.747Z,5.93
2018-01-02T01:13:29.601Z,5.94
2018-01-02T01:14:29.455Z,5.95
2018-01-02T01:15:29.231Z,5.94
2018-01-02T01:16:29.250Z,5.93
2018-01-02T01:18:29.408Z,5.89
2018-01-02T01:19:29.314Z,5.89
2018-01-02T01:20:29.120Z,5.88
2018-01-02T01:21:29.005Z,5.87
2018-01-02T01:22:28.850Z,5.88
2018-01-02T01:23:28.872Z,5.88
2018-01-02T01:24:28.932Z,5.87
2018-01-02T01:25:29.008Z,5.84
2018-01-02T01:26:29.749Z,5.82
2018-01-02T01:27:29.772Z,5.82
2018-01-02T01:28:29.805Z,5.82
2018-01-02T01:29:29.779Z,5.81
2018-01-02T01:30:29.548Z,5.8
2018-01-02T01:31:29.611Z,5.78
2018-01-02T01:32:29.509Z,5.76
2018-01-02T01:33:29.579Z,5.76
2018-01-02T01:34:29.782Z,5.77
2018-01-02T01:35:29.856Z,5.76
2018-01-02T01:36:29.754Z,5.77
2018-01-02T01:37:29.787Z,5.77
2018-01-02T01:38:29.638Z,5.78
2018-01-02T01:39:29.752Z,5.75
2018-01-02T01:40:29.823Z,5.77
2018-01-02T01:41:29.807Z,5.73
2018-01-02T01:42:29.710Z,5.71
2018-01-02T01:43:29.735Z,5.71
2018-01-02T01:44:29.762Z,5.71
2018-01-02T01:45:29.982Z,5.73
2018-01-02T01:46:29.993Z,5.71
2018-01-02T01:47:30.077Z,5.72
2018-01-02T01:48:29.969Z,5.69
2018-01-02T01:49:29.961Z,5.71
2018-01-02T01:50:29.896Z,5.7
2018-01-02T01:51:29.888Z,5.72
2018-01-02T01:52:29.817Z,5.71
2018-01-02T01:53:29.733Z,5.7
2018-01-02T01:54:29.627Z,5.69
2018-01-02T01:55:29.714Z,5.7
2018-01-02T01:56:28.814Z,5.71
2018-01-02T01:57:28.776Z,5.69
2018-01-02T01:58:28.813Z,5.68
2018-01-02T01:59:28.698Z,5.68
2018-01-02T02:00:29.750Z,5.7
2018-01-02T02:01:28.715Z,5.69
2018-01-02T02:02:29.490Z,5.69
2018-01-02T02:03:29.376Z,5.69
2018-01-02T02:04:29.319Z,5.68
2018-01-02T02:05:29.362Z,5.7
2018-01-02T02:06:29.332Z,5.69
2018-01-02T02:07:29.346Z,5.7
2018-01-02T02:08:29.279Z,5.74
2018-01-02T02:09:29.384Z,5.73
2018-01-02T02:10:29.289Z,5.73
2018-01-02T02:11:29.457Z,5.72
2018-01-02T02:12:29.323Z,5.72
2018-01-02T02:13:29.371Z,5.73
2018-01-02T02:14:29.444Z,5.73
2018-01-02T02:15:29.578Z,5.74
2018-01-02T02:16:29.681Z,5.74
2018-01-02T02:17:29.174Z,5.74
2018-01-02T02:18:29.296Z,5.74
2018-01-02T02:19:29.313Z,5.75
2018-01-02T02:20:29.333Z,5.74
2018-01-02T02:21:29.553Z,5.77
2018-01-02T02:22:29.627Z,5.76
2018-01-02T02:23:29.760Z,5.76
2018-01-02T02:24:28.902Z,5.76
2018-01-02T02:25:28.857Z,5.76
2018-01-02T02:26:28.831Z,5.76
2018-01-02T02:27:29.741Z,5.77
2018-01-02T02:28:29.801Z,5.78
2018-01-02T02:29:29.797Z,5.77
2018-01-02T02:30:29.941Z,5.77
2018-01-02T02:31:29.179Z,5.75
2018-01-02T02:32:29.080Z,5.77
2018-01-02T02:33:29.231Z,5.78
2018-01-02T02:34:29.313Z,5.78
2018-01-02T02:35:29.283Z,5.78
2018-01-02T02:36:29.178Z,5.77
2018-01-02T02:37:29.150Z,5.79
2018-01-02T02:38:29.051Z,5.78
2018-01-02T02:39:29.312Z,5.79
2018-01-02T02:40:29.264Z,5.78
2018-01-02T02:41:29.217Z,5.79
2018-01-02T02:42:29.104Z,5.79
2018-01-02T02:43:29.176Z,5.78
2018-01-02T02:44:29.264Z,5.77
2018-01-02T02:45:29.310Z,5.77
2018-01-02T02:46:29.297Z,5.77
2018-01-02T02:47:29.343Z,5.77
2018-01-02T02:48:29.336Z,5.78
2018-01-02T02:49:29.355Z,5.76
2018-01-02T02:50:29.521Z,5.77
2018-01-02T02:51:29.577Z,5.78
2018-01-02T02:52:29.443Z,5.77
2018-01-02T02:53:29.413Z,5.79
2018-01-02T02:54:29.403Z,5.79
2018-01-02T02:55:29.452Z,5.77
2018-01-02T02:56:29.658Z,5.8
2018-01-02T02:57:29.747Z,5.78
2018-01-02T02:58:29.713Z,5.78
2018-01-02T02:59:29.639Z,5.8
2018-01-02T03:00:29.467Z,5.79
2018-01-02T03:01:29.387Z,5.8
2018-01-02T03:02:30.242Z,5.81
2018-01-02T03:03:30.304Z,5.79
2018-01-02T03:04:30.282Z,5.81
2018-01-02T03:05:30.299Z,5.8
2018-01-02T03:06:30.153Z,5.8
2018-01-02T03:07:30.146Z,5.81
2018-01-02T03:08:30.202Z,5.81
2018-01-02T03:09:30.196Z,5.82
2018-01-02T03:10:30.099Z,5.82
2018-01-02T03:11:30.121Z,5.81
2018-01-02T03:12:30.166Z,5.81
2018-01-02T03:13:30.141Z,5.81
2018-01-02T03:14:29.954Z,5.8
2018-01-02T03:15:29.799Z,5.82
2018-01-02T03:16:29.713Z,5.82
2018-01-02T03:17:29.865Z,5.82
2018-01-02T03:18:29.829Z,5.82
2018-01-02T03:19:29.908Z,5.84
2018-01-02T03:20:29.895Z,5.85
2018-01-02T03:21:29.958Z,5.85
2018-01-02T03:22:29.734Z,5.86
2018-01-02T03:23:29.718Z,5.85
2018-01-02T03:24:29.692Z,5.83
2018-01-02T03:25:29.977Z,5.82
2018-01-02T03:26:30.180Z,5.83
2018-01-02T03:27:29.170Z,5.83
2018-01-02T03:28:29.052Z,5.84
2018-01-02T03:29:29.091Z,5.84
2018-01-02T03:30:29.040Z,5.85
2018-01-02T03:31:29.115Z,5.84
2018-01-02T03:32:28.936Z,5.85
2018-01-02T03:33:28.960Z,5.84
2018-01-02T03:34:28.948Z,5.82
2018-01-02T03:35:29.027Z,5.83
2018-01-02T03:36:29.239Z,5.82
2018-01-02T03:37:29.231Z,5.82
2018-01-02T03:38:29.258Z,5.81
2018-01-02T03:39:29.289Z,5.82
2018-01-02T03:40:29.334Z,5.84
2018-01-02T03:41:29.329Z,5.84
2018-01-02T03:42:29.472Z,5.83
2018-01-02T03:43:29.413Z,5.87
2018-01-02T03:44:29.448Z,5.85
2018-01-02T03:45:29.467Z,5.87
2018-01-02T03:46:29.465Z,5.88
2018-01-02T03:47:29.590Z,5.88
2018-01-02T03:48:29.533Z,5.89
2018-01-02T03:49:29.519Z,5.9
2018-01-02T03:50:29.391Z,5.9
2018-01-02T03:51:29.491Z,5.89
2018-01-02T03:52:29.620Z,5.9
2018-01-02T03:53:29.648Z,5.91
2018-01-02T03:54:29.590Z,5.9
2018-01-02T03:55:30.047Z,5.9
2018-01-02T03:56:28.934Z,5.92
2018-01-02T03:57:29.816Z,5.9
2018-01-02T03:58:28.936Z,5.91
2018-01-02T03:59:28.856Z,5.89
2018-01-02T04:00:28.770Z,5.87
2018-01-02T04:01:29.698Z,5.88
2018-01-02T04:02:28.753Z,5.89
2018-01-02T04:03:29.529Z,5.88
2018-01-02T04:04:29.472Z,5.87
2018-01-02T04:05:29.488Z,5.87
2018-01-02T04:06:29.593Z,5.87
2018-01-02T04:07:29.455Z,5.89
2018-01-02T04:08:29.331Z,5.9
2018-01-02T04:09:29.168Z,5.9
2018-01-02T04:10:29.302Z,5.9
2018-01-02T04:11:29.217Z,5.9
2018-01-02T04:12:29.196Z,5.88
2018-01-02T04:13:29.420Z,5.9
2018-01-02T04:14:29.602Z,5.92
2018-01-02T04:15:29.650Z,5.9
2018-01-02T04:16:29.732Z,5.9
2018-01-02T04:17:29.709Z,5.91
2018-01-02T04:18:28.787Z,5.89
2018-01-02T04:19:29.704Z,5.9
2018-01-02T04:21:32.907Z,5.94
2018-01-02T04:22:29.093Z,5.95
2018-01-02T04:23:29.111Z,5.98
2018-01-02T04:24:28.986Z,5.95
2018-01-02T04:25:28.974Z,5.95
2018-01-02T04:26:29.007Z,5.93
2018-01-02T04:27:29.221Z,5.92
2018-01-02T04:28:28.918Z,5.92
2018-01-02T04:29:28.839Z,5.9
2018-01-02T04:30:29.967Z,5.9
2018-01-02T04:31:29.597Z,5.92
2018-01-02T04:32:29.180Z,5.92
2018-01-02T04:33:29.313Z,5.94
2018-01-02T04:34:29.263Z,5.92
2018-01-02T04:35:29.837Z,5.93
2018-01-02T04:36:29.990Z,5.96
2018-01-02T04:37:29.080Z,5.9
2018-01-02T04:38:29.088Z,5.93
2018-01-02T04:39:29.156Z,5.96
2018-01-02T04:40:29.791Z,5.98
2018-01-02T04:41:29.747Z,6
2018-01-02T04:42:29.877Z,5.98
2018-01-02T04:43:30.002Z,5.96
2018-01-02T04:44:29.721Z,5.97
2018-01-02T04:45:29.180Z,5.99
2018-01-02T04:46:29.159Z,6.02
2018-01-02T04:47:29.188Z,6.01
2018-01-02T04:48:29.790Z,6
2018-01-02T04:49:29.449Z,6.04
2018-01-02T04:50:29.477Z,6.01
2018-01-02T04:51:29.243Z,6
2018-01-02T04:52:29.249Z,6.01
2018-01-02T04:53:29.473Z,6.03
2018-01-02T04:54:29.095Z,6
2018-01-02T04:55:29.726Z,6.05
2018-01-02T04:56:29.743Z,6.04
2018-01-02T04:57:29.829Z,6.03
2018-01-02T04:58:29.277Z,6.05
2018-01-02T04:59:29.327Z,6.06
2018-01-02T05:00:29.336Z,6.04
2018-01-02T05:01:29.994Z,6.02
2018-01-02T05:02:29.065Z,6.05
2018-01-02T05:03:29.684Z,6.05
2018-01-02T05:04:29.971Z,6.01
2018-01-02T05:05:29.982Z,6.02
2018-01-02T05:06:29.803Z,6.07
2018-01-02T05:07:29.451Z,6.02
2018-01-02T05:08:29.862Z,6.03
2018-01-02T05:09:29.838Z,6.03
2018-01-02T05:10:29.914Z,6.01
2018-01-02T05:11:29.885Z,5.99
2018-01-02T05:12:29.817Z,6.04
2018-01-02T05:13:29.769Z,6.01
2018-01-02T05:14:29.841Z,6.02
2018-01-02T05:15:29.539Z,6.02
2018-01-02T05:16:29.481Z,6.03
2018-01-02T05:17:29.729Z,6.03
2018-01-02T05:18:29.393Z,6.02
2018-01-02T05:19:29.470Z,6.02
2018-01-02T05:20:29.402Z,6
2018-01-02T05:21:29.401Z,6.03
2018-01-02T05:22:29.400Z,5.98
2018-01-02T05:23:29.360Z,6.04
2018-01-02T05:24:29.409Z,6.02
2018-01-02T05:25:29.603Z,6
2018-01-02T05:26:29.796Z,6.01
2018-01-02T05:27:29.467Z,6
2018-01-02T05:28:30.023Z,5.97
2018-01-02T05:29:29.982Z,5.99
2018-01-02T05:30:29.412Z,6
2018-01-02T05:31:29.400Z,6
2018-01-02T05:32:29.453Z,6.02
2018-01-02T05:33:29.717Z,6.01
2018-01-02T05:34:29.721Z,5.99
2018-01-02T05:35:29.565Z,6
2018-01-02T05:36:29.592Z,6.01
2018-01-02T05:37:29.425Z,6.02
2018-01-02T05:38:29.928Z,6
2018-01-02T05:39:29.919Z,5.99
2018-01-02T05:40:29.276Z,6.01
2018-01-02T05:41:29.192Z,5.99
2018-01-02T05:42:29.305Z,6
2018-01-02T05:43:29.434Z,6
2018-01-02T05:44:29.348Z,5.96
2018-01-02T05:45:29.985Z,5.97
2018-01-02T05:46:29.427Z,5.97
2018-01-02T05:47:28.931Z,5.97
2018-01-02T05:48:29.774Z,5.98
2018-01-02T05:49:29.771Z,5.97
2018-01-02T05:50:29.801Z,5.96
2018-01-02T05:51:29.102Z,5.95
2018-01-02T05:52:29.253Z,5.95
2018-01-02T05:53:31.336Z,5.93
2018-01-02T05:54:31.997Z,5.96
2018-01-02T05:55:29.908Z,5.92
2018-01-02T05:56:29.976Z,5.93
2018-01-02T05:57:29.403Z,5.94
2018-01-02T05:58:29.460Z,5.92
2018-01-02T05:59:28.588Z,5.92
2018-01-02T06:00:29.434Z,5.89
2018-01-02T06:01:28.639Z,5.9
2018-01-02T06:02:29.528Z,5.88
2018-01-02T06:03:29.499Z,5.9
2018-01-02T06:04:29.206Z,5.92
2018-01-02T06:05:29.366Z,5.92
2018-01-02T06:06:29.005Z,5.91
2018-01-02T06:07:29.027Z,5.92
2018-01-02T06:08:29.298Z,5.92
2018-01-02T06:09:29.203Z,5.93
2018-01-02T06:10:29.102Z,5.89
2018-01-02T06:11:29.548Z,5.94
2018-01-02T06:12:28.640Z,5.93
2018-01-02T06:13:29.627Z,5.95
2018-01-02T06:14:29.700Z,5.92
2018-01-02T06:15:28.979Z,5.94
2018-01-02T06:16:29.478Z,5.94
2018-01-02T06:17:29.083Z,5.94
2018-01-02T06:18:28.840Z,5.95
2018-01-02T06:19:28.925Z,5.94
2018-01-02T06:20:29.122Z,5.93
2018-01-02T06:21:29.142Z,5.92
2018-01-02T06:22:28.928Z,5.92
2018-01-02T06:23:28.995Z,5.92
2018-01-02T06:24:28.939Z,5.92
2018-01-02T06:25:28.893Z,5.94
2018-01-02T06:26:28.850Z,5.91
2018-01-02T06:27:28.796Z,5.91
2018-01-02T06:28:29.526Z,5.91
2018-01-02T06:29:29.148Z,5.91
2018-01-02T06:30:30.140Z,5.91
2018-01-02T06:31:29.536Z,5.93
2018-01-02T06:32:30.079Z,5.91
2018-01-02T06:33:31.243Z,5.9
2018-01-02T06:34:29.596Z,5.9
2018-01-02T06:35:29.694Z,5.91
2018-01-02T06:36:30.069Z,5.9
2018-01-02T06:37:30.138Z,5.9
2018-01-02T06:38:29.481Z,5.89
2018-01-02T06:39:30.123Z,5.89
2018-01-02T06:40:31.636Z,5.89
2018-01-02T06:41:29.902Z,5.87
2018-01-02T06:42:29.513Z,5.86
2018-01-02T06:43:29.377Z,5.85
2018-01-02T06:44:29.316Z,5.85
2018-01-02T06:45:29.940Z,5.84
2018-01-02T06:46:29.668Z,5.85
2018-01-02T06:47:29.337Z,5.85
2018-01-02T06:48:29.393Z,5.85
2018-01-02T06:49:29.953Z,5.85
2018-01-02T06:50:29.356Z,5.86
2018-01-02T06:51:29.920Z,5.88
2018-01-02T06:52:29.772Z,5.86
2018-01-02T06:53:29.986Z,5.86
2018-01-02T06:54:30.086Z,5.87
2018-01-02T06:55:31.425Z,5.86
2018-01-02T06:56:29.500Z,5.87
2018-01-02T06:57:31.167Z,5.86
2018-01-02T06:58:29.441Z,5.88
2018-01-02T06:59:29.478Z,5.86
2018-01-02T07:00:28.554Z,5.89
2018-01-02T07:01:29.457Z,5.86
2018-01-02T07:02:28.687Z,5.88
2018-01-02T07:03:28.764Z,5.9
2018-01-02T07:04:28.795Z,5.88
2018-01-02T07:05:29.158Z,5.88
2018-01-02T07:06:28.861Z,5.89
2018-01-02T07:07:28.896Z,5.9
2018-01-02T07:08:28.787Z,5.89
2018-01-02T07:09:28.983Z,5.9
2018-01-02T07:10:29.012Z,5.88
2018-01-02T07:11:28.820Z,5.9
2018-01-02T07:12:28.970Z,5.9
2018-01-02T07:13:29.012Z,5.9
2018-01-02T07:14:28.953Z,5.89
2018-01-02T07:15:29.369Z,5.91
2018-01-02T07:16:28.423Z,5.91
2018-01-02T07:17:29.192Z,5.9
2018-01-02T07:18:29.595Z,5.89
2018-01-02T07:19:29.071Z,5.9
2018-01-02T07:20:28.905Z,5.9
2018-01-02T07:21:29.153Z,5.88
2018-01-02T07:22:29.249Z,5.89
2018-01-02T07:23:28.949Z,5.89
2018-01-02T07:24:28.673Z,5.89
2018-01-02T07:25:28.866Z,5.89
2018-01-02T07:26:28.941Z,5.89
2018-01-02T07:27:28.558Z,5.9
2018-01-02T07:28:29.676Z,5.89
2018-01-02T07:29:29.516Z,5.89
2018-01-02T07:30:29.149Z,5.89
2018-01-02T07:31:29.797Z,5.89
2018-01-02T07:32:29.552Z,5.88
2018-01-02T07:33:29.450Z,5.89
2018-01-02T07:34:29.578Z,5.89
2018-01-02T07:35:29.679Z,5.9
2018-01-02T07:36:29.552Z,5.89
2018-01-02T07:37:29.681Z,5.88
2018-01-02T07:38:29.728Z,5.89
2018-01-02T07:39:29.714Z,5.88
2018-01-02T07:40:29.517Z,5.88
2018-01-02T07:41:29.252Z,5.88
2018-01-02T07:42:29.449Z,5.86
2018-01-02T07:43:29.507Z,5.87
2018-01-02T07:44:30.105Z,5.87
2018-01-02T07:45:29.478Z,5.87
2018-01-02T07:46:29.646Z,5.86
2018-01-02T07:47:29.389Z,5.85
2018-01-02T07:48:29.967Z,5.85
2018-01-02T07:49:29.168Z,5.86
2018-01-02T07:50:29.326Z,5.85
2018-01-02T07:51:29.472Z,5.85
2018-01-02T07:52:29.588Z,5.85
2018-01-02T07:53:29.965Z,5.85
2018-01-02T07:54:29.685Z,5.86
2018-01-02T07:55:29.898Z,5.86
2018-01-02T07:56:30.144Z,5.86
2018-01-02T07:57:29.842Z,5.83
2018-01-02T07:58:29.191Z,5.83
2018-01-02T07:59:29.185Z,5.82
2018-01-02T08:00:29.431Z,5.82
2018-01-02T08:01:30.092Z,5.82
2018-01-02T08:02:31.225Z,5.83
2018-01-02T08:03:29.994Z,5.83
2018-01-02T08:04:30.131Z,5.81
2018-01-02T08:05:29.749Z,5.81
2018-01-02T08:06:29.396Z,5.81
2018-01-02T08:07:31.340Z,5.82
2018-01-02T08:08:29.468Z,5.82
2018-01-02T08:09:30.918Z,5.82
2018-01-02T08:10:29.923Z,5.83
2018-01-02T08:11:29.762Z,5.82
2018-01-02T08:12:29.500Z,5.83
2018-01-02T08:13:29.572Z,5.82
2018-01-02T08:14:29.815Z,5.81
2018-01-02T08:15:29.555Z,5.8
2018-01-02T08:16:31.219Z,5.81
2018-01-02T08:17:31.658Z,5.82
2018-01-02T08:18:29.665Z,5.8
2018-01-02T08:19:29.634Z,5.8
2018-01-02T08:20:29.636Z,5.79
2018-01-02T08:21:29.597Z,5.8
2018-01-02T08:22:29.666Z,5.8
2018-01-02T08:23:29.723Z,5.8
2018-01-02T08:24:31.389Z,5.81
2018-01-02T08:25:29.508Z,5.78
2018-01-02T08:26:31.294Z,5.8
2018-01-02T08:27:29.609Z,5.8
2018-01-02T08:28:30.139Z,5.8
2018-01-02T08:29:31.254Z,5.8
2018-01-02T08:30:31.297Z,5.82
2018-01-02T08:31:29.415Z,5.81
2018-01-02T08:32:29.436Z,5.81
2018-01-02T08:33:29.443Z,5.8
2018-01-02T08:34:29.883Z,5.81
2018-01-02T08:35:29.772Z,5.8
2018-01-02T08:36:29.879Z,5.8
2018-01-02T08:37:30.016Z,5.78
2018-01-02T08:38:29.943Z,5.8
2018-01-02T08:39:30.098Z,5.79
2018-01-02T08:40:29.988Z,5.8
2018-01-02T08:41:30.708Z,5.79
2018-01-02T08:42:29.662Z,5.8
2018-01-02T08:43:29.859Z,5.8
2018-01-02T08:44:29.795Z,5.79
2018-01-02T08:45:31.203Z,5.77
2018-01-02T08:46:31.183Z,5.79
2018-01-02T08:47:29.360Z,5.79
2018-01-02T08:48:29.482Z,5.78
2018-01-02T08:49:30.047Z,5.77
2018-01-02T08:50:29.485Z,5.78
2018-01-02T08:51:31.453Z,5.78
2018-01-02T08:52:30.054Z,5.79
2018-01-02T08:53:31.118Z,5.79
2018-01-02T08:54:31.770Z,5.79
2018-01-02T08:55:29.862Z,5.79
2018-01-02T08:56:29.860Z,5.79
2018-01-02T08:57:29.871Z,5.79
2018-01-02T08:58:29.539Z,5.8
2018-01-02T08:59:29.509Z,5.78
2018-01-02T09:00:29.435Z,5.79
2018-01-02T09:01:28.724Z,5.8
2018-01-02T09:02:28.775Z,5.8
2018-01-02T09:03:28.813Z,5.79
2018-01-02T09:04:28.697Z,5.79
2018-01-02T09:05:29.206Z,5.79
2018-01-02T09:06:29.122Z,5.79
2018-01-02T09:07:29.050Z,5.79
2018-01-02T09:08:29.168Z,5.78
2018-01-02T09:09:29.486Z,5.79
2018-01-02T09:10:29.505Z,5.79
2018-01-02T09:11:29.050Z,5.79
2018-01-02T09:12:28.829Z,5.78
2018-01-02T09:13:28.779Z,5.8
2018-01-02T09:14:29.307Z,5.79
2018-01-02T09:15:29.394Z,5.79
2018-01-02T09:16:29.281Z,5.8
2018-01-02T09:17:29.277Z,5.79
2018-01-02T09:18:29.689Z,5.79
2018-01-02T09:19:28.928Z,5.78
2018-01-02T09:20:29.183Z,5.79
2018-01-02T09:21:29.415Z,5.79
2018-01-02T09:22:29.096Z,5.78
2018-01-02T09:23:28.867Z,5.8
2018-01-02T09:24:28.822Z,5.8
2018-01-02T09:25:28.714Z,5.81
2018-01-02T09:26:28.714Z,5.81
2018-01-02T09:27:29.580Z,5.81
2018-01-02T09:28:28.752Z,5.82
2018-01-02T09:29:28.745Z,5.83
2018-01-02T09:30:28.886Z,5.83
2018-01-02T09:31:29.056Z,5.83
2018-01-02T09:32:28.857Z,5.83
2018-01-02T09:33:29.651Z,5.83
2018-01-02T09:34:29.406Z,5.85
2018-01-02T09:35:29.105Z,5.84
2018-01-02T09:36:29.155Z,5.86
2018-01-02T09:37:29.353Z,5.86
2018-01-02T09:38:29.693Z,5.85
2018-01-02T09:39:29.454Z,5.85
2018-01-02T09:40:29.181Z,5.86
2018-01-02T09:41:29.868Z,5.86
2018-01-02T09:42:29.549Z,5.87
2018-01-02T09:43:29.924Z,5.87
2018-01-02T09:44:29.143Z,5.88
2018-01-02T09:45:29.151Z,5.88
2018-01-02T09:46:29.194Z,5.87
2018-01-02T09:47:29.372Z,5.87
2018-01-02T09:48:29.603Z,5.86
2018-01-02T09:49:29.635Z,5.86
2018-01-02T09:50:29.516Z,5.85
2018-01-02T09:51:29.178Z,5.85
2018-01-02T09:52:29.447Z,5.85
2018-01-02T09:53:29.783Z,5.84
2018-01-02T09:54:28.992Z,5.85
2018-01-02T09:55:29.936Z,5.84
2018-01-02T09:56:29.181Z,5.84
2018-01-02T09:57:29.223Z,5.84
2018-01-02T09:58:29.418Z,5.79
2018-01-02T09:59:29.349Z,5.78
2018-01-02T10:00:29.136Z,5.77
2018-01-02T10:01:29.823Z,5.8
2018-01-02T10:02:28.775Z,5.78
2018-01-02T10:03:29.821Z,5.8
2018-01-02T10:04:30.201Z,5.77
2018-01-02T10:05:29.616Z,5.79
2018-01-02T10:06:29.934Z,5.79
2018-01-02T10:07:31.968Z,5.78
2018-01-02T10:08:32.080Z,5.78
2018-01-02T10:11:34.061Z,5.79
2018-01-02T10:12:29.258Z,5.8
2018-01-02T10:13:31.721Z,5.81
2018-01-02T10:14:30.875Z,5.81
2018-01-02T10:15:31.228Z,5.82
2018-01-02T10:16:29.283Z,5.82
2018-01-02T10:17:29.380Z,5.83
2018-01-02T10:18:29.472Z,5.84
2018-01-02T10:19:31.014Z,5.85
2018-01-02T10:20:29.066Z,5.86
2018-01-02T10:21:29.195Z,5.87
2018-01-02T10:22:30.800Z,5.87
2018-01-02T10:23:28.954Z,5.88
2018-01-02T10:24:30.646Z,5.87
2018-01-02T10:25:30.711Z,5.86
2018-01-02T10:26:30.644Z,5.86
2018-01-02T10:27:31.476Z,5.85
2018-01-02T10:28:30.981Z,5.85
2018-01-02T10:29:29.027Z,5.85
2018-01-02T10:30:29.061Z,5.85
2018-01-02T10:31:30.957Z,5.83
2018-01-02T10:32:34.355Z,5.87
2018-01-02T10:33:30.544Z,5.87
2018-01-02T10:34:29.545Z,5.86
2018-01-02T10:35:30.869Z,5.89
2018-01-02T10:36:31.585Z,5.89
2018-01-02T10:37:30.774Z,5.91
2018-01-02T10:38:30.878Z,5.92
2018-01-02T10:39:31.178Z,5.94
2018-01-02T10:40:29.560Z,5.94
2018-01-02T10:41:30.850Z,5.95
2018-01-02T10:42:31.328Z,5.97
2018-01-02T10:43:29.408Z,5.98
2018-01-02T10:44:29.330Z,5.98
2018-01-02T10:45:29.167Z,5.94
2018-01-02T10:46:29.108Z,5.97
2018-01-02T10:47:29.500Z,5.93
2018-01-02T10:48:30.942Z,5.89
2018-01-02T10:49:31.524Z,5.88
2018-01-02T10:50:30.774Z,5.9
2018-01-02T10:51:30.392Z,5.89
2018-01-02T10:52:30.743Z,5.86
2018-01-02T10:53:30.937Z,5.86
2018-01-02T10:54:31.138Z,5.87
2018-01-02T10:55:31.281Z,5.84
2018-01-02T10:56:29.134Z,5.86
2018-01-02T10:57:29.431Z,5.83
2018-01-02T10:58:30.766Z,5.82
2018-01-02T10:59:32.416Z,5.77
2018-01-02T11:00:31.090Z,5.8
2018-01-02T11:01:29.209Z,5.78
2018-01-02T11:02:30.791Z,5.71
2018-01-02T11:03:29.146Z,5.78
2018-01-02T11:04:29.101Z,5.76
2018-01-02T11:05:29.290Z,5.82
2018-01-02T11:06:29.460Z,5.79
2018-01-02T11:07:30.721Z,5.79
2018-01-02T11:08:31.569Z,5.8
2018-01-02T11:09:30.263Z,5.82
2018-01-02T11:10:29.429Z,5.82
2018-01-02T11:11:30.781Z,5.83
2018-01-02T11:12:28.919Z,5.82
2018-01-02T11:13:28.950Z,5.85
2018-01-02T11:14:29.217Z,5.86
2018-01-02T11:15:29.292Z,5.85
2018-01-02T11:16:30.677Z,5.78
2018-01-02T11:17:28.725Z,5.83
2018-01-02T11:18:28.948Z,5.77
2018-01-02T11:19:29.057Z,5.76
2018-01-02T11:20:29.210Z,5.78
2018-01-02T11:21:29.535Z,5.81
2018-01-02T11:22:29.312Z,5.8
2018-01-02T11:23:29.328Z,5.82
2018-01-02T11:24:29.484Z,5.83
2018-01-02T11:25:29.552Z,5.86
2018-01-02T11:26:30.208Z,5.86
2018-01-02T11:27:29.412Z,5.8
2018-01-02T11:28:30.477Z,5.79
2018-01-02T11:29:29.547Z,5.82
2018-01-02T11:30:30.952Z,5.79
2018-01-02T11:31:29.296Z,5.83
2018-01-02T11:32:30.679Z,5.84
2018-01-02T11:33:28.922Z,5.83
2018-01-02T11:34:29.239Z,5.84
2018-01-02T11:35:29.092Z,5.79
2018-01-02T11:36:29.170Z,5.83
2018-01-02T11:37:29.484Z,5.78
2018-01-02T11:38:29.198Z,5.77
2018-01-02T11:39:29.377Z,5.83
2018-01-02T11:40:29.507Z,5.74
2018-01-02T11:41:30.702Z,5.8
2018-01-02T11:42:30.980Z,5.8
2018-01-02T11:43:28.971Z,5.76
2018-01-02T11:44:28.941Z,5.7
2018-01-02T11:45:29.182Z,5.78
2018-01-02T11:46:29.249Z,5.76
2018-01-02T11:47:29.413Z,5.74
2018-01-02T11:48:29.546Z,5.74
2018-01-02T11:49:28.873Z,5.8
2018-01-02T11:50:28.937Z,5.8
2018-01-02T11:51:30.819Z,5.79
2018-01-02T11:52:29.110Z,5.7
2018-01-02T11:53:29.270Z,5.73
2018-01-02T11:54:29.356Z,5.73
2018-01-02T11:55:29.503Z,5.74
2018-01-02T11:56:28.912Z,5.72
2018-01-02T11:57:30.934Z,5.78
2018-01-02T11:58:28.902Z,5.79
2018-01-02T11:59:30.774Z,5.74
2018-01-02T12:00:29.230Z,5.76
2018-01-02T12:01:29.332Z,5.75
2018-01-02T12:02:30.805Z,5.77
2018-01-02T12:03:31.458Z,5.78
2018-01-02T12:04:30.797Z,5.76
2018-01-02T12:05:30.933Z,5.78
2018-01-02T12:06:29.140Z,5.76
2018-01-02T12:07:29.341Z,5.79
2018-01-02T12:08:29.580Z,5.78
2018-01-02T12:09:29.141Z,5.74
2018-01-02T12:10:30.736Z,5.81
2018-01-02T12:11:31.271Z,5.82
2018-01-02T12:12:29.328Z,5.73
2018-01-02T12:13:30.869Z,5.74
2018-01-02T12:14:29.103Z,5.76
2018-01-02T12:15:29.102Z,5.79
2018-01-02T12:16:29.357Z,5.8
2018-01-02T12:17:29.329Z,5.8
2018-01-02T12:18:30.818Z,5.78
2018-01-02T12:19:30.642Z,5.74
2018-01-02T12:20:30.763Z,5.77
2018-01-02T12:21:30.972Z,5.75
2018-01-02T12:22:28.900Z,5.78
2018-01-02T12:23:30.758Z,5.79
2018-01-02T12:24:31.465Z,5.8
2018-01-02T12:25:30.764Z,5.8
2018-01-02T12:26:31.009Z,5.8
2018-01-02T12:27:29.115Z,5.83
2018-01-02T12:28:29.287Z,5.85
2018-01-02T12:29:29.527Z,5.85
2018-01-02T12:30:29.495Z,5.84
2018-01-02T12:31:30.909Z,5.85
2018-01-02T12:32:30.618Z,5.86
2018-01-02T12:33:29.219Z,5.91
2018-01-02T12:34:29.330Z,5.89
2018-01-02T12:35:29.540Z,5.93
2018-01-02T12:36:29.396Z,5.92
2018-01-02T12:37:29.555Z,5.94
2018-01-02T12:38:29.439Z,5.94
2018-01-02T12:39:31.734Z,5.94
2018-01-02T12:40:30.848Z,5.93
2018-01-02T12:41:30.500Z,5.94
2018-01-02T12:42:30.866Z,5.95
2018-01-02T12:43:31.039Z,5.96
2018-01-02T12:44:31.543Z,5.99
2018-01-02T12:45:31.215Z,6
2018-01-02T12:46:30.902Z,6.05
2018-01-02T12:47:31.411Z,6.02
2018-01-02T12:48:29.501Z,6.03
2018-01-02T12:49:31.476Z,6.15
2018-01-02T12:50:30.825Z,6.09
2018-01-02T12:51:31.103Z,6.11
2018-01-02T12:52:31.399Z,6.1
2018-01-02T12:53:30.992Z,6.15
2018-01-02T12:54:31.366Z,6.1
2018-01-02T12:55:30.708Z,6.1
2018-01-02T12:57:31.258Z,6.14
2018-01-02T12:58:31.075Z,6.24
2018-01-02T12:59:31.124Z,6.19
2018-01-02T13:00:31.204Z,6.13
2018-01-02T13:01:31.182Z,6.13
2018-01-02T13:02:31.271Z,6.11
2018-01-02T13:03:31.816Z,6.1
2018-01-02T13:04:31.336Z,6.13
2018-01-02T13:05:29.492Z,6.12
2018-01-02T13:06:30.733Z,6.12
2018-01-02T13:07:30.702Z,6.11
2018-01-02T13:08:31.270Z,6.11
2018-01-02T13:09:29.264Z,6.11
2018-01-02T13:10:30.754Z,6.15
2018-01-02T13:11:30.931Z,6.13
2018-01-02T13:12:31.361Z,6.11
2018-01-02T13:13:30.387Z,6.1
2018-01-02T13:14:30.908Z,6.09
2018-01-02T13:15:31.533Z,6.1
2018-01-02T13:16:29.524Z,6.09
2018-01-02T13:17:29.562Z,6.1
2018-01-02T13:18:30.886Z,6.09
2018-01-02T13:19:31.073Z,6.09
2018-01-02T13:20:31.157Z,6.09
2018-01-02T13:21:30.746Z,6.08
2018-01-02T13:22:31.038Z,6.1
2018-01-02T13:23:31.167Z,6.1
2018-01-02T13:24:31.492Z,6.09
2018-01-02T13:25:29.512Z,6.07
2018-01-02T13:26:30.200Z,6.06
2018-01-02T13:27:30.671Z,6.06
2018-01-02T13:28:31.384Z,6.05
2018-01-02T13:29:29.432Z,6.04